createdAt,value
2022-12-20T00:00:15.400Z,8.23
2022-12-20T00:02:43.731Z,7.63
2022-12-20T00:05:12.073Z,8.53
2022-12-20T00:07:40.875Z,9.67
2022-12-20T00:10:10.212Z,6.97
2022-12-20T00:12:38.950Z,7.77
2022-12-20T00:15:10.713Z,6.97
2022-12-20T00:17:40.363Z,4.90
2022-12-20T00:20:12.089Z,4.93
2022-12-20T00:22:40.361Z,4.67
2022-12-20T00:25:09.513Z,4.33
2022-12-20T00:27:37.642Z,5.87
2022-12-20T00:30:08.155Z,6.57
2022-12-20T00:32:36.405Z,5.07
2022-12-20T00:35:07.195Z,6.67
2022-12-20T00:37:35.619Z,4.97
2022-12-20T00:40:05.966Z,5.43
2022-12-20T00:42:34.809Z,5.43
2022-12-20T00:45:03.377Z,5.43
2022-12-20T00:47:32.066Z,5.47
2022-12-20T00:50:00.295Z,5.60
2022-12-20T00:52:29.994Z,4.70
2022-12-20T00:54:58.333Z,3.97
2022-12-20T00:57:26.597Z,6.40
2022-12-20T00:59:54.808Z,4.93
2022-12-20T01:02:25.176Z,5.70
2022-12-20T01:04:55.502Z,4.63
2022-12-20T01:07:25.196Z,4.53
2022-12-20T01:09:56.374Z,4.40
2022-12-20T01:12:25.165Z,4.23
2022-12-20T01:14:53.977Z,6.20
2022-12-20T01:17:22.651Z,6.27
2022-12-20T01:19:51.221Z,5.10
2022-12-20T01:22:20.194Z,4.37
2022-12-20T01:24:48.430Z,4.40
2022-12-20T01:27:18.880Z,4.57
2022-12-20T01:29:47.144Z,5.37
2022-12-20T01:32:16.252Z,5.10
2022-12-20T01:34:44.512Z,7.10
2022-12-20T01:37:14.549Z,3.63
2022-12-20T01:39:42.877Z,5.13
2022-12-20T01:42:15.941Z,6.47
2022-12-20T01:45:14.251Z,4.00
2022-12-20T01:47:42.665Z,3.23
2022-12-20T01:50:11.292Z,4.23
2022-12-20T01:52:48.092Z,3.40
2022-12-20T01:55:21.197Z,4.60
2022-12-20T01:57:55.261Z,4.83
2022-12-20T02:00:25.754Z,2.33
2022-12-20T02:02:55.803Z,3.37
2022-12-20T02:05:25.234Z,2.37
2022-12-20T02:07:58.259Z,1.97
2022-12-20T02:10:39.071Z,1.50
2022-12-20T02:13:21.533Z,2.03
2022-12-20T02:15:56.907Z,1.30
2022-12-20T02:18:32.647Z,1.40
2022-12-20T02:21:25.469Z,1.47
2022-12-20T02:24:41.178Z,1.93
2022-12-20T02:27:33.255Z,1.17
2022-12-20T02:30:18.895Z,0.87
2022-12-20T02:33:00.940Z,1.40
2022-12-20T02:35:32.662Z,1.53
2022-12-20T02:38:05.798Z,1.83
2022-12-20T02:40:41.865Z,1.20
2022-12-20T02:43:27.050Z,1.57
2022-12-20T02:46:00.175Z,2.37
2022-12-20T02:48:37.774Z,1.60
2022-12-20T02:51:11.678Z,1.90
2022-12-20T02:53:43.018Z,3.57
2022-12-20T02:56:21.391Z,2.73
2022-12-20T02:58:58.353Z,1.20
2022-12-20T03:01:33.550Z,1.07
2022-12-20T03:04:03.280Z,1.23
2022-12-20T03:06:31.968Z,1.67
2022-12-20T03:09:00.727Z,1.53
2022-12-20T03:11:31.690Z,1.27
2022-12-20T03:14:00.815Z,1.00
2022-12-20T03:16:30.896Z,1.10
2022-12-20T03:18:59.437Z,1.83
2022-12-20T03:21:28.161Z,3.17
2022-12-20T03:23:56.457Z,2.13
2022-12-20T03:26:24.758Z,1.30
2022-12-20T03:28:58.541Z,1.50
2022-12-20T03:31:30.548Z,1.83
2022-12-20T03:34:01.081Z,2.17
2022-12-20T03:36:29.738Z,2.37
2022-12-20T03:39:01.930Z,3.03
2022-12-20T03:41:33.526Z,4.93
2022-12-20T03:44:02.469Z,3.47
2022-12-20T03:46:32.472Z,2.87
2022-12-20T03:49:01.076Z,2.37
2022-12-20T03:51:30.343Z,2.43
2022-12-20T03:53:59.043Z,2.97
2022-12-20T03:56:41.689Z,3.90
2022-12-20T03:59:10.424Z,2.80
2022-12-20T04:01:41.448Z,1.93
2022-12-20T04:04:11.548Z,3.33
2022-12-20T04:06:40.379Z,2.73
2022-12-20T04:09:08.660Z,2.10
2022-12-20T04:11:43.436Z,4.30
2022-12-20T04:14:15.370Z,3.47
2022-12-20T04:16:46.973Z,2.57
2022-12-20T04:19:15.645Z,2.37
2022-12-20T04:21:47.651Z,1.47
2022-12-20T04:24:20.957Z,3.27
2022-12-20T04:27:07.822Z,3.60
2022-12-20T04:29:36.901Z,3.50
2022-12-20T04:32:09.721Z,4.10
2022-12-20T04:34:38.533Z,6.00
2022-12-20T04:37:06.994Z,6.87
2022-12-20T04:39:45.955Z,4.30
2022-12-20T04:42:20.923Z,3.93
2022-12-20T04:44:50.670Z,4.40
2022-12-20T04:47:26.105Z,3.67
2022-12-20T04:49:56.386Z,2.50
2022-12-20T04:52:47.594Z,3.17
2022-12-20T04:55:17.200Z,3.10
2022-12-20T04:57:46.147Z,2.57
2022-12-20T05:00:17.232Z,1.83
2022-12-20T05:02:51.636Z,3.00
2022-12-20T05:05:23.058Z,2.90
2022-12-20T05:07:55.277Z,5.63
2022-12-20T05:10:24.485Z,1.90
2022-12-20T05:12:54.582Z,3.57
2022-12-20T05:15:33.463Z,2.10
2022-12-20T05:18:05.598Z,3.63
2022-12-20T05:20:47.136Z,6.07
2022-12-20T05:23:33.529Z,4.50
2022-12-20T05:26:22.046Z,6.60
2022-12-20T05:28:53.713Z,4.17
2022-12-20T05:31:22.725Z,3.57
2022-12-20T05:33:53.013Z,5.33
2022-12-20T05:36:22.454Z,4.87
2022-12-20T05:38:51.825Z,12.17
2022-12-20T05:41:21.358Z,11.53
2022-12-20T05:43:53.043Z,12.10
2022-12-20T05:46:21.495Z,9.03
2022-12-20T05:49:02.885Z,5.87
2022-12-20T05:51:33.178Z,11.17
2022-12-20T05:54:08.736Z,10.03
2022-12-20T05:56:48.936Z,19.83
2022-12-20T05:59:20.470Z,15.47
2022-12-20T06:01:49.719Z,14.77
2022-12-20T06:04:19.965Z,14.90
2022-12-20T06:06:49.169Z,18.37
2022-12-20T06:09:21.145Z,18.50
2022-12-20T06:12:02.560Z,13.50
2022-12-20T06:14:33.743Z,18.37
2022-12-20T06:17:03.738Z,13.53
2022-12-20T06:19:35.196Z,18.33
2022-12-20T06:22:04.728Z,13.73
2022-12-20T06:24:55.619Z,15.10
2022-12-20T06:27:28.491Z,12.53
2022-12-20T06:30:12.339Z,14.57
2022-12-20T06:33:16.279Z,16.83
2022-12-20T06:35:46.524Z,9.57
2022-12-20T06:38:15.531Z,10.07
2022-12-20T06:40:44.216Z,10.63
2022-12-20T06:43:12.713Z,10.93
2022-12-20T06:45:42.154Z,14.90
2022-12-20T06:48:12.479Z,11.40
2022-12-20T06:50:41.678Z,14.47
2022-12-20T06:53:12.238Z,28.73
2022-12-20T06:55:41.440Z,39.77
2022-12-20T06:58:09.972Z,44.13
2022-12-20T07:00:39.497Z,59.57
2022-12-20T07:03:08.659Z,52.17
2022-12-20T07:05:37.115Z,24.07
2022-12-20T07:08:07.033Z,16.50
2022-12-20T07:10:38.775Z,13.20
2022-12-20T07:13:07.047Z,11.73
2022-12-20T07:15:35.410Z,10.37
2022-12-20T07:18:03.758Z,8.20
2022-12-20T07:20:32.832Z,10.23
2022-12-20T07:23:01.377Z,7.10
2022-12-20T07:25:30.852Z,6.77
2022-12-20T07:28:00.883Z,7.13
2022-12-20T07:30:29.077Z,13.23
2022-12-20T07:32:57.349Z,17.17
2022-12-20T07:35:26.697Z,7.77
2022-12-20T07:37:55.376Z,6.87
2022-12-20T07:40:24.225Z,7.17
2022-12-20T07:42:53.667Z,7.07
2022-12-20T07:45:23.306Z,8.47
2022-12-20T07:47:52.220Z,8.87
2022-12-20T07:50:20.505Z,7.77
2022-12-20T07:52:52.017Z,8.87
2022-12-20T07:55:20.621Z,7.87
2022-12-20T07:57:54.445Z,11.13
2022-12-20T08:00:24.984Z,11.87
2022-12-20T08:03:00.576Z,9.23
2022-12-20T08:05:30.671Z,9.90
2022-12-20T08:08:04.049Z,11.07
2022-12-20T08:10:33.691Z,11.33
2022-12-20T08:13:03.007Z,7.53
2022-12-20T08:15:32.957Z,9.40
2022-12-20T08:18:01.458Z,7.20
2022-12-20T08:20:30.232Z,7.33
2022-12-20T08:22:58.514Z,7.27
2022-12-20T08:25:27.003Z,9.40
2022-12-20T08:27:55.227Z,12.33
2022-12-20T08:30:23.639Z,10.30
2022-12-20T08:32:53.322Z,9.97
2022-12-20T08:35:22.108Z,10.53
2022-12-20T08:37:55.965Z,8.00
2022-12-20T08:40:24.382Z,9.93
2022-12-20T08:42:53.302Z,8.83
2022-12-20T08:45:21.979Z,11.07
2022-12-20T08:47:50.312Z,11.33
2022-12-20T08:50:20.588Z,16.63
2022-12-20T08:52:48.909Z,15.87
2022-12-20T08:55:24.571Z,15.90
2022-12-20T08:57:55.898Z,21.70
2022-12-20T09:00:26.160Z,20.47
2022-12-20T09:02:55.985Z,22.33
2022-12-20T09:05:25.905Z,18.57
2022-12-20T09:07:55.372Z,21.30
2022-12-20T09:10:24.421Z,18.63
2022-12-20T09:12:52.727Z,18.20
2022-12-20T09:15:21.221Z,14.33
2022-12-20T09:17:49.477Z,19.27
2022-12-20T09:20:17.860Z,17.33
2022-12-20T09:22:48.103Z,16.57
2022-12-20T09:25:18.988Z,21.27
2022-12-20T09:27:47.689Z,20.77
2022-12-20T09:30:16.396Z,21.87
2022-12-20T09:32:45.912Z,29.53
2022-12-20T09:35:19.333Z,39.43
2022-12-20T09:37:52.393Z,48.27
2022-12-20T09:40:32.599Z,36.40
2022-12-20T09:43:01.275Z,54.77
2022-12-20T09:45:37.144Z,68.67
2022-12-20T09:48:07.864Z,61.80
2022-12-20T09:50:54.866Z,47.17
2022-12-20T09:53:42.803Z,22.90
2022-12-20T09:56:17.830Z,15.40
2022-12-20T09:59:03.488Z,15.93
2022-12-20T10:01:39.531Z,15.10
2022-12-20T10:04:22.154Z,21.37
2022-12-20T10:07:11.335Z,24.10
2022-12-20T10:10:19.186Z,31.20
2022-12-20T10:13:02.368Z,29.87
2022-12-20T10:15:42.054Z,12.53
2022-12-20T10:18:34.173Z,20.10
2022-12-20T10:21:12.545Z,22.87
2022-12-20T10:23:47.372Z,10.47
2022-12-20T10:26:18.327Z,16.07
2022-12-20T10:28:52.199Z,21.33
2022-12-20T10:31:22.934Z,14.30
2022-12-20T10:33:51.290Z,17.63
2022-12-20T10:36:24.269Z,19.57
2022-12-20T10:38:55.530Z,23.97
2022-12-20T10:41:28.598Z,19.57
2022-12-20T10:44:03.722Z,26.77
2022-12-20T10:46:43.710Z,8.33
2022-12-20T10:49:31.572Z,23.77
2022-12-20T10:52:03.790Z,8.53
2022-12-20T10:54:37.147Z,10.27
2022-12-20T10:57:23.952Z,11.83
2022-12-20T10:59:56.355Z,15.20
2022-12-20T11:02:39.330Z,13.33
2022-12-20T11:05:25.532Z,17.07
2022-12-20T11:10:47.358Z,7.40
2022-12-20T11:13:29.065Z,7.83
2022-12-20T11:16:01.761Z,6.47
2022-12-20T11:18:51.203Z,8.10
2022-12-20T11:21:34.061Z,7.53
2022-12-20T11:24:15.469Z,7.10
2022-12-20T11:27:15.650Z,7.43
2022-12-20T11:30:18.666Z,6.03
2022-12-20T11:33:15.763Z,8.20
2022-12-20T11:35:56.650Z,8.03
2022-12-20T11:38:42.816Z,6.00
2022-12-20T11:41:21.374Z,9.67
2022-12-20T11:44:27.235Z,10.97
2022-12-20T11:47:25.759Z,18.10
2022-12-20T11:50:35.355Z,8.57
2022-12-20T11:53:11.843Z,11.13
2022-12-20T11:55:46.981Z,14.10
2022-12-20T11:58:23.688Z,16.00
2022-12-20T12:01:02.011Z,13.70
2022-12-20T12:03:37.410Z,13.97
2022-12-20T12:06:13.143Z,16.23
2022-12-20T12:08:50.056Z,15.40
2022-12-20T12:14:27.292Z,16.23
2022-12-20T12:17:06.906Z,16.77
2022-12-20T12:19:44.469Z,17.80
2022-12-20T12:22:21.279Z,16.03
2022-12-20T12:24:57.283Z,14.20
2022-12-20T12:27:29.260Z,11.03
2022-12-20T12:30:00.200Z,12.13
2022-12-20T12:32:44.159Z,16.03
2022-12-20T12:36:03.006Z,15.03
2022-12-20T12:39:02.913Z,13.30
2022-12-20T12:42:20.129Z,12.07
2022-12-20T12:44:55.783Z,10.70
2022-12-20T12:47:39.696Z,13.27
2022-12-20T12:50:24.056Z,12.47
2022-12-20T12:52:57.384Z,10.40
2022-12-20T12:56:07.417Z,10.80
2022-12-20T12:58:48.810Z,11.87
2022-12-20T13:01:56.375Z,9.97
2022-12-20T13:04:31.313Z,9.63
2022-12-20T13:07:05.038Z,10.27
2022-12-20T13:09:44.127Z,10.53
2022-12-20T13:12:57.132Z,16.97
2022-12-20T13:16:48.747Z,14.00
2022-12-20T13:19:19.192Z,13.73
2022-12-20T13:21:48.860Z,14.43
2022-12-20T13:25:04.655Z,16.90
2022-12-20T13:27:39.097Z,16.87
2022-12-20T13:30:28.533Z,48.73
2022-12-20T13:33:17.540Z,33.13
2022-12-20T13:36:03.466Z,34.77
2022-12-20T13:38:56.224Z,33.53
2022-12-20T13:41:39.797Z,23.67
2022-12-20T13:44:42.873Z,29.50
2022-12-20T13:47:30.864Z,21.27
2022-12-20T13:50:04.256Z,30.27
2022-12-20T13:52:35.255Z,31.97
2022-12-20T13:55:17.512Z,23.67
2022-12-20T13:57:47.708Z,23.63
2022-12-20T14:00:20.132Z,28.93
2022-12-20T14:02:48.928Z,24.20
2022-12-20T14:05:23.406Z,26.30
2022-12-20T14:08:00.680Z,32.97
2022-12-20T14:10:32.252Z,55.37
2022-12-20T14:13:02.319Z,38.80
2022-12-20T14:15:33.389Z,37.00
2022-12-20T14:18:17.246Z,28.53
2022-12-20T14:20:49.713Z,27.30
2022-12-20T14:23:21.672Z,24.10
2022-12-20T14:25:54.271Z,25.93
2022-12-20T14:28:32.756Z,22.73
2022-12-20T14:31:26.995Z,28.70
2022-12-20T14:34:06.251Z,25.17
2022-12-20T14:36:36.085Z,29.17
2022-12-20T14:39:27.218Z,37.17
2022-12-20T14:42:01.199Z,39.23
2022-12-20T14:44:33.208Z,35.93
2022-12-20T14:47:13.061Z,33.97
2022-12-20T14:49:42.445Z,36.07
2022-12-20T14:52:18.106Z,32.00
2022-12-20T14:55:09.428Z,30.97
2022-12-20T14:57:46.569Z,40.13
2022-12-20T15:00:24.493Z,43.90
2022-12-20T15:03:01.630Z,42.10
2022-12-20T15:05:51.390Z,31.47
2022-12-20T15:08:27.535Z,36.13
2022-12-20T15:11:01.177Z,34.77
2022-12-20T15:13:34.255Z,34.43
2022-12-20T15:16:07.713Z,35.40
2022-12-20T15:18:36.228Z,41.33
2022-12-20T15:21:15.126Z,70.00
2022-12-20T15:23:49.004Z,88.90
2022-12-20T15:26:20.634Z,55.10
2022-12-20T15:28:49.432Z,34.47
2022-12-20T15:31:26.010Z,26.73
2022-12-20T15:33:58.484Z,54.60
2022-12-20T15:36:30.259Z,52.50
2022-12-20T15:39:15.820Z,51.50
2022-12-20T15:41:48.243Z,66.00
2022-12-20T15:44:21.692Z,70.40
2022-12-20T15:46:52.824Z,60.03
2022-12-20T15:49:24.674Z,56.37
2022-12-20T15:51:55.201Z,43.27
2022-12-20T15:54:27.552Z,41.43
2022-12-20T15:56:57.959Z,37.77
2022-12-20T16:02:23.263Z,47.80
2022-12-20T16:04:52.903Z,37.67
2022-12-20T16:07:21.765Z,42.40
2022-12-20T16:09:51.150Z,27.67
2022-12-20T16:12:25.607Z,26.07
2022-12-20T16:14:55.559Z,24.87
2022-12-20T16:17:25.720Z,24.83
2022-12-20T16:19:55.376Z,19.77
2022-12-20T16:22:26.726Z,19.83
2022-12-20T16:24:55.757Z,18.57
2022-12-20T16:27:24.267Z,22.03
2022-12-20T16:29:52.757Z,17.83
2022-12-20T16:32:23.062Z,19.87
2022-12-20T16:34:53.813Z,42.53
2022-12-20T16:37:22.713Z,39.10
2022-12-20T16:39:51.228Z,57.03
2022-12-20T16:42:22.693Z,47.80
2022-12-20T16:44:54.288Z,28.80
2022-12-20T16:47:23.112Z,34.90
2022-12-20T16:49:53.949Z,39.43
2022-12-20T16:52:24.956Z,41.73
2022-12-20T16:54:53.802Z,36.67
2022-12-20T16:57:22.235Z,36.77
2022-12-20T16:59:50.959Z,64.80
2022-12-20T17:02:28.744Z,44.47
2022-12-20T17:04:59.225Z,37.47
2022-12-20T17:07:27.631Z,44.97
2022-12-20T17:09:55.954Z,43.47
2022-12-20T17:12:24.532Z,28.77
2022-12-20T17:14:53.263Z,20.27
2022-12-20T17:17:21.519Z,21.43
2022-12-20T17:19:50.931Z,22.57
2022-12-20T17:22:23.764Z,20.93
2022-12-20T17:24:52.548Z,23.57
2022-12-20T17:27:20.881Z,19.57
2022-12-20T17:29:51.037Z,28.40
2022-12-20T17:32:23.967Z,32.50
2022-12-20T17:34:52.951Z,33.60
2022-12-20T17:37:24.692Z,50.80
2022-12-20T17:39:53.159Z,55.30
2022-12-20T17:42:28.761Z,57.50
2022-12-20T17:44:59.484Z,60.70
2022-12-20T17:47:27.803Z,53.27
2022-12-20T17:49:56.105Z,47.73
2022-12-20T17:52:26.606Z,38.27
2022-12-20T17:54:55.905Z,40.23
2022-12-20T17:57:27.094Z,32.30
2022-12-20T17:59:55.531Z,26.43
2022-12-20T18:02:27.977Z,15.93
2022-12-20T18:04:56.938Z,17.17
2022-12-20T18:07:26.847Z,14.63
2022-12-20T18:09:55.139Z,27.80
2022-12-20T18:12:23.621Z,22.37
2022-12-20T18:14:52.023Z,18.23
2022-12-20T18:17:21.052Z,15.50
2022-12-20T18:19:49.619Z,17.63
2022-12-20T18:22:18.354Z,19.53
2022-12-20T18:24:48.465Z,18.67
2022-12-20T18:27:17.996Z,11.50
2022-12-20T18:29:46.743Z,8.87
2022-12-20T18:32:15.071Z,18.60
2022-12-20T18:34:44.099Z,22.50
2022-12-20T18:37:12.480Z,29.47
2022-12-20T18:39:41.619Z,39.43
2022-12-20T18:42:11.358Z,47.03
2022-12-20T18:44:40.349Z,26.47
2022-12-20T18:47:09.106Z,22.80
2022-12-20T18:49:37.920Z,16.70
2022-12-20T18:52:07.138Z,25.07
2022-12-20T18:54:36.777Z,27.00
2022-12-20T18:57:07.285Z,18.80
2022-12-20T18:59:37.205Z,15.97
2022-12-20T19:02:05.737Z,17.33
2022-12-20T19:04:36.655Z,21.37
2022-12-20T19:07:04.971Z,29.13
2022-12-20T19:09:33.257Z,37.50
2022-12-20T19:12:02.302Z,23.00
2022-12-20T19:14:30.747Z,25.37
2022-12-20T19:17:00.800Z,22.93
2022-12-20T19:19:29.366Z,20.90
2022-12-20T19:21:57.796Z,13.67
2022-12-20T19:24:26.079Z,15.47
2022-12-20T19:26:54.567Z,15.50
2022-12-20T19:29:23.078Z,11.67
2022-12-20T19:31:51.521Z,8.90
2022-12-20T19:34:22.136Z,20.87
2022-12-20T19:36:52.443Z,12.80
2022-12-20T19:39:23.591Z,6.97
2022-12-20T19:42:22.527Z,9.10
2022-12-20T19:44:41.843Z,9.27
2022-12-20T19:47:10.237Z,8.53
2022-12-20T19:49:40.262Z,11.20
2022-12-20T19:52:09.139Z,11.27
2022-12-20T19:54:39.857Z,12.10
2022-12-20T19:57:08.465Z,16.67
2022-12-20T19:59:37.127Z,8.80
2022-12-20T20:02:05.663Z,7.83
2022-12-20T20:04:34.431Z,9.10
2022-12-20T20:07:04.725Z,20.87
2022-12-20T20:09:36.475Z,24.63
2022-12-20T20:12:05.919Z,11.97
2022-12-20T20:14:34.315Z,12.67
2022-12-20T20:17:02.795Z,11.90
2022-12-20T20:19:31.187Z,11.03
2022-12-20T20:22:01.236Z,12.80
2022-12-20T20:24:31.307Z,11.00
2022-12-20T20:26:59.823Z,8.23
2022-12-20T20:29:28.581Z,5.67
2022-12-20T20:31:57.475Z,13.47
2022-12-20T20:34:26.012Z,6.50
2022-12-20T20:36:54.743Z,4.73
2022-12-20T20:39:23.000Z,8.23
2022-12-20T20:41:52.668Z,9.97
2022-12-20T20:44:20.891Z,7.23
2022-12-20T20:46:49.426Z,8.10
2022-12-20T20:49:19.696Z,10.03
2022-12-20T20:51:48.263Z,6.30
2022-12-20T20:54:16.847Z,28.70
2022-12-20T20:56:45.086Z,27.80
2022-12-20T20:59:17.730Z,36.53
2022-12-20T21:01:46.603Z,14.17
2022-12-20T21:04:14.901Z,12.57
2022-12-20T21:06:43.265Z,24.27
2022-12-20T21:09:12.182Z,11.03
2022-12-20T21:11:40.933Z,17.67
2022-12-20T21:14:11.339Z,45.80
2022-12-20T21:16:42.219Z,34.87
2022-12-20T21:19:11.944Z,51.67
2022-12-20T21:21:40.178Z,57.37
2022-12-20T21:24:08.874Z,52.77
2022-12-20T21:26:37.914Z,46.53
2022-12-20T21:29:06.304Z,29.77
2022-12-20T21:31:34.762Z,22.63
2022-12-20T21:34:05.509Z,14.47
2022-12-20T21:36:34.069Z,24.53
2022-12-20T21:39:02.290Z,22.00
2022-12-20T21:41:31.655Z,31.73
2022-12-20T21:44:01.466Z,31.53
2022-12-20T21:46:32.278Z,20.40
2022-12-20T21:49:01.020Z,16.00
2022-12-20T21:51:31.999Z,12.20
2022-12-20T21:54:03.075Z,15.63
2022-12-20T21:56:35.743Z,22.33
2022-12-20T21:59:05.276Z,24.13
2022-12-20T22:01:33.785Z,29.87
2022-12-20T22:04:05.989Z,29.47
2022-12-20T22:06:36.618Z,24.37
2022-12-20T22:09:07.499Z,34.33
2022-12-20T22:11:37.843Z,18.50
2022-12-20T22:14:07.577Z,19.00
2022-12-20T22:16:36.314Z,27.53
2022-12-20T22:19:05.718Z,20.20
2022-12-20T22:21:37.389Z,17.03
2022-12-20T22:24:05.844Z,19.53
2022-12-20T22:26:35.945Z,19.67
2022-12-20T22:29:07.442Z,26.33
2022-12-20T22:31:37.390Z,33.20
2022-12-20T22:34:06.513Z,33.13
2022-12-20T22:36:36.994Z,26.03
2022-12-20T22:39:05.924Z,17.40
2022-12-20T22:41:35.509Z,19.00
2022-12-20T22:44:05.020Z,19.83
2022-12-20T22:46:34.198Z,14.60
2022-12-20T22:49:02.494Z,7.27
2022-12-20T22:51:33.511Z,10.37
2022-12-20T22:54:04.173Z,18.67
2022-12-20T22:56:32.486Z,29.43
2022-12-20T22:59:00.922Z,91.40
2022-12-20T23:01:29.329Z,59.67
2022-12-20T23:03:58.055Z,19.63
2022-12-20T23:06:26.572Z,15.93
2022-12-20T23:08:55.280Z,13.27
2022-12-20T23:11:45.009Z,14.23
2022-12-20T23:14:33.443Z,15.87
2022-12-20T23:17:03.020Z,25.83
2022-12-20T23:19:53.039Z,22.20
2022-12-20T23:22:40.634Z,26.17
2022-12-20T23:25:13.069Z,28.73
2022-12-20T23:27:46.091Z,25.30
2022-12-20T23:30:18.265Z,73.03
2022-12-20T23:32:46.643Z,42.33
2022-12-20T23:35:17.858Z,62.27
2022-12-20T23:37:46.835Z,66.10
2022-12-20T23:40:17.785Z,56.27
2022-12-20T23:42:47.654Z,47.67
2022-12-20T23:45:16.050Z,36.40
2022-12-20T23:47:44.245Z,31.23
2022-12-20T23:50:13.052Z,23.47
2022-12-20T23:52:41.595Z,17.30
2022-12-20T23:55:11.218Z,10.33
2022-12-20T23:57:40.008Z,11.17
